Airport View

Enter AWOS ICAO identifier for current METAR.

ex. KFNL

KEQA 200255Z AUTO 33008KT 10SM SCT019 06/05 A3016 RMK AO2

20 Mar 2019 03:03

Frequency: 120.875

Phone: 316-322-8095

Other Area AWOS: K3AU - K1K1 - KAAO - KBEC

TAF KIAB 200202Z 2002/2108 34010G15KT 9999 BKN012 BKN120 QNH3016INS BECMG 2004/2005 34009KT 9999 BKN015 QNH3020INS BECMG 2014/2015 32010G15KT 9999 SCT030 QNH3027INS BECMG 2016/2017 31010G15KT 9999 SKC QNH3015INS BECMG 2023/2024 VRB06KT 9999 SKC QNH3017INS TX14/2021Z TN04/2012Z